sensor_id;sensor_type;location;lat;lon;timestamp;pressure;altitude;pressure_sealevel;temperature;humidity
42859;BME280;28505;56.970;40.998;2023-04-01T00:02:46;98718.19;;;1.15;100.00
42859;BME280;28505;56.970;40.998;2023-04-01T00:08:10;98726.94;;;1.21;100.00
42859;BME280;28505;56.970;40.998;2023-04-01T00:13:36;98741.06;;;1.31;100.00
42859;BME280;28505;56.970;40.998;2023-04-01T00:18:58;98726.44;;;1.29;100.00
42859;BME280;28505;56.970;40.998;2023-04-01T00:24:21;98726.69;;;1.27;100.00
42859;BME280;28505;56.970;40.998;2023-04-01T00:29:45;98715.53;;;1.20;100.00
42859;BME280;28505;56.970;40.998;2023-04-01T00:35:07;98716.88;;;1.23;100.00
42859;BME280;28505;56.970;40.998;2023-04-01T00:40:31;98725.66;;;1.33;100.00
42859;BME280;28505;56.970;40.998;2023-04-01T00:45:53;98702.25;;;1.20;100.00
42859;BME280;28505;56.970;40.998;2023-04-01T00:51:18;98730.19;;;1.43;100.00
42859;BME280;28505;56.970;40.998;2023-04-01T01:02:27;98719.53;;;1.33;100.00
42859;BME280;28505;56.970;40.998;2023-04-01T01:08:06;98717.16;;;1.31;100.00
42859;BME280;28505;56.970;40.998;2023-04-01T01:13:38;98722.47;;;1.31;100.00
42859;BME280;28505;56.970;40.998;2023-04-01T01:19:08;98736.53;;;1.37;100.00
42859;BME280;28505;56.970;40.998;2023-04-01T01:30:42;98737.88;;;1.39;100.00
42859;BME280;28505;56.970;40.998;2023-04-01T01:36:14;98745.03;;;1.34;100.00
42859;BME280;28505;56.970;40.998;2023-04-01T01:41:39;98745.03;;;1.34;100.00
42859;BME280;28505;56.970;40.998;2023-04-01T01:47:03;98719.00;;;1.15;100.00
42859;BME280;28505;56.970;40.998;2023-04-01T01:52:27;98744.75;;;1.30;100.00
42859;BME280;28505;56.970;40.998;2023-04-01T01:57:50;98753.28;;;1.32;100.00
42859;BME280;28505;56.970;40.998;2023-04-01T02:03:14;98743.72;;;1.31;100.00
42859;BME280;28505;56.970;40.998;2023-04-01T02:14:07;98744.25;;;1.33;100.00
42859;BME280;28505;56.970;40.998;2023-04-01T02:19:53;98748.25;;;1.31;100.00
42859;BME280;28505;56.970;40.998;2023-04-01T02:25:30;98742.91;;;1.26;100.00
42859;BME280;28505;56.970;40.998;2023-04-01T02:30:57;98745.81;;;1.29;100.00
42859;BME280;28505;56.970;40.998;2023-04-01T02:36:23;98734.91;;;1.15;100.00
42859;BME280;28505;56.970;40.998;2023-04-01T02:41:46;98720.81;;;1.10;100.00
42859;BME280;28505;56.970;40.998;2023-04-01T02:47:08;98742.09;;;1.20;100.00
42859;BME280;28505;56.970;40.998;2023-04-01T02:52:31;98726.16;;;1.15;100.00
42859;BME280;28505;56.970;40.998;2023-04-01T02:57:57;98742.91;;;1.26;100.00
42859;BME280;28505;56.970;40.998;2023-04-01T03:03:20;98727.19;;;1.14;100.00
42859;BME280;28505;56.970;40.998;2023-04-01T03:08:43;98728.28;;;1.18;100.00
42859;BME280;28505;56.970;40.998;2023-04-01T03:14:06;98725.06;;;1.11;100.00
42859;BME280;28505;56.970;40.998;2023-04-01T03:19:28;98732.00;;;1.22;100.00
42859;BME280;28505;56.970;40.998;2023-04-01T03:24:52;98737.31;;;1.22;100.00
42859;BME280;28505;56.970;40.998;2023-04-01T03:30:16;98748.22;;;1.26;100.00
42859;BME280;28505;56.970;40.998;2023-04-01T03:35:43;98754.31;;;1.26;100.00
42859;BME280;28505;56.970;40.998;2023-04-01T03:41:07;98760.41;;;1.27;100.00
42859;BME280;28505;56.970;40.998;2023-04-01T03:46:29;98752.22;;;1.28;100.00
42859;BME280;28505;56.970;40.998;2023-04-01T03:51:51;98772.41;;;1.34;100.00
42859;BME280;28505;56.970;40.998;2023-04-01T03:57:15;98768.13;;;1.28;100.00
42859;BME280;28505;56.970;40.998;2023-04-01T04:02:37;98773.16;;;1.25;100.00
42859;BME280;28505;56.970;40.998;2023-04-01T04:08:01;98775.06;;;1.34;100.00
42859;BME280;28505;56.970;40.998;2023-04-01T04:13:25;98779.56;;;1.39;100.00
42859;BME280;28505;56.970;40.998;2023-04-01T04:18:53;98784.63;;;1.46;100.00
42859;BME280;28505;56.970;40.998;2023-04-01T04:24:16;98779.31;;;1.46;100.00
42859;BME280;28505;56.970;40.998;2023-04-01T04:29:54;98757.78;;;1.37;100.00
42859;BME280;28505;56.970;40.998;2023-04-01T04:35:25;98741.84;;;1.37;100.00
42859;BME280;28505;56.970;40.998;2023-04-01T04:40:51;98769.25;;;1.58;100.00
42859;BME280;28505;56.970;40.998;2023-04-01T04:46:14;98763.41;;;1.56;100.00
42859;BME280;28505;56.970;40.998;2023-04-01T04:51:45;98747.47;;;1.51;100.00
42859;BME280;28505;56.970;40.998;2023-04-01T04:57:13;98778.03;;;1.69;100.00
42859;BME280;28505;56.970;40.998;2023-04-01T05:02:45;98794.28;;;1.77;100.00
42859;BME280;28505;56.970;40.998;2023-04-01T05:08:22;98761.28;;;1.58;100.00
42859;BME280;28505;56.970;40.998;2023-04-01T05:13:45;98793.19;;;1.88;100.00
42859;BME280;28505;56.970;40.998;2023-04-01T05:19:10;98753.84;;;1.45;100.00
42859;BME280;28505;56.970;40.998;2023-04-01T05:24:33;98744.78;;;1.40;100.00
42859;BME280;28505;56.970;40.998;2023-04-01T05:29:56;98800.38;;;1.78;100.00
42859;BME280;28505;56.970;40.998;2023-04-01T05:35:37;98798.53;;;2.24;100.00
42859;BME280;28505;56.970;40.998;2023-04-01T05:41:01;98799.56;;;2.39;100.00
42859;BME280;28505;56.970;40.998;2023-04-01T05:46:28;98786.25;;;2.59;100.00
42859;BME280;28505;56.970;40.998;2023-04-01T05:51:58;98781.72;;;2.54;100.00
42859;BME280;28505;56.970;40.998;2023-04-01T05:57:22;98786.25;;;2.69;100.00
42859;BME280;28505;56.970;40.998;2023-04-01T06:02:45;98795.31;;;2.48;100.00
42859;BME280;28505;56.970;40.998;2023-04-01T06:08:13;98789.44;;;2.61;100.00
42859;BME280;28505;56.970;40.998;2023-04-01T06:13:56;98800.78;;;3.08;100.00
42859;BME280;28505;56.970;40.998;2023-04-01T06:31:26;98790.63;;;3.64;100.00
42859;BME280;28505;56.970;40.998;2023-04-01T06:37:17;98777.91;;;3.51;100.00
42859;BME280;28505;56.970;40.998;2023-04-01T06:43:10;98813.97;;;3.83;100.00
42859;BME280;28505;56.970;40.998;2023-04-01T07:01:23;98825.81;;;3.66;100.00
42859;BME280;28505;56.970;40.998;2023-04-01T07:07:01;98824.19;;;3.65;100.00
42859;BME280;28505;56.970;40.998;2023-04-01T07:18:29;98841.19;;;3.80;100.00
42859;BME280;28505;56.970;40.998;2023-04-01T07:23:57;98839.59;;;3.79;100.00
42859;BME280;28505;56.970;40.998;2023-04-01T07:29:30;98851.63;;;3.76;100.00
42859;BME280;28505;56.970;40.998;2023-04-01T07:46:53;98855.22;;;4.64;100.00
42859;BME280;28505;56.970;40.998;2023-04-01T07:58:26;98847.50;;;4.91;100.00
42859;BME280;28505;56.970;40.998;2023-04-01T08:10:11;98887.31;;;4.88;100.00
42859;BME280;28505;56.970;40.998;2023-04-01T08:16:26;98887.97;;;4.75;100.00
42859;BME280;28505;56.970;40.998;2023-04-01T08:22:03;98894.25;;;4.89;100.00
42859;BME280;28505;56.970;40.998;2023-04-01T08:27:55;98889.09;;;4.98;100.00
42859;BME280;28505;56.970;40.998;2023-04-01T08:33:29;98883.78;;;4.92;100.00
42859;BME280;28505;56.970;40.998;2023-04-01T08:39:03;98913.47;;;4.91;100.00
42859;BME280;28505;56.970;40.998;2023-04-01T09:19:56;98946.28;;;4.57;100.00
42859;BME280;28505;56.970;40.998;2023-04-01T09:37:35;98962.31;;;4.57;100.00
42859;BME280;28505;56.970;40.998;2023-04-01T09:43:16;98981.69;;;4.73;100.00
42859;BME280;28505;56.970;40.998;2023-04-01T10:12:00;99007.25;;;4.40;100.00
42859;BME280;28505;56.970;40.998;2023-04-01T10:24:18;99022.13;;;4.51;100.00
42859;BME280;28505;56.970;40.998;2023-04-01T11:08:30;99062.69;;;4.58;100.00
42859;BME280;28505;56.970;40.998;2023-04-01T11:14:24;99075.50;;;4.56;100.00
42859;BME280;28505;56.970;40.998;2023-04-01T11:26:21;99088.31;;;4.59;100.00
42859;BME280;28505;56.970;40.998;2023-04-01T11:50:18;99115.78;;;4.60;100.00
42859;BME280;28505;56.970;40.998;2023-04-01T11:56:09;99111.78;;;4.57;100.00
42859;BME280;28505;56.970;40.998;2023-04-01T12:24:54;99144.19;;;4.30;100.00
42859;BME280;28505;56.970;40.998;2023-04-01T12:30:21;99154.34;;;4.23;100.00
42859;BME280;28505;56.970;40.998;2023-04-01T12:35:52;99150.34;;;4.20;100.00
42859;BME280;28505;56.970;40.998;2023-04-01T13:00:04;99177.56;;;4.17;100.00
42859;BME280;28505;56.970;40.998;2023-04-01T13:17:25;99197.88;;;4.03;100.00
42859;BME280;28505;56.970;40.998;2023-04-01T13:23:14;99206.38;;;4.05;100.00
42859;BME280;28505;56.970;40.998;2023-04-01T13:29:14;99201.59;;;3.97;100.00
42859;BME280;28505;56.970;40.998;2023-04-01T14:26:11;99268.81;;;3.94;100.00
42859;BME280;28505;56.970;40.998;2023-04-01T14:38:02;99285.34;;;3.91;100.00
42859;BME280;28505;56.970;40.998;2023-04-01T14:43:45;99294.94;;;3.87;100.00
42859;BME280;28505;56.970;40.998;2023-04-01T14:49:22;99305.34;;;3.83;100.00
42859;BME280;28505;56.970;40.998;2023-04-01T14:54:48;99320.50;;;3.78;100.00
42859;BME280;28505;56.970;40.998;2023-04-01T15:00:17;99305.84;;;3.60;100.00
42859;BME280;28505;56.970;40.998;2023-04-01T15:05:51;99346.91;;;3.74;100.00
42859;BME280;28505;56.970;40.998;2023-04-01T15:17:05;99354.88;;;3.64;100.00
42859;BME280;28505;56.970;40.998;2023-04-01T15:33:52;99362.84;;;3.59;100.00
42859;BME280;28505;56.970;40.998;2023-04-01T16:20:14;99432.09;;;3.48;100.00
42859;BME280;28505;56.970;40.998;2023-04-01T16:25:32;99432.63;;;3.45;100.00
42859;BME280;28505;56.970;40.998;2023-04-01T16:36:54;99404.28;;;3.29;100.00
42859;BME280;28505;56.970;40.998;2023-04-01T16:42:47;99432.28;;;3.37;100.00
42859;BME280;28505;56.970;40.998;2023-04-01T16:48:14;99436.88;;;3.41;100.00
42859;BME280;28505;56.970;40.998;2023-04-01T16:59:16;99425.88;;;3.33;100.00
42859;BME280;28505;56.970;40.998;2023-04-01T17:10:33;99422.59;;;3.20;100.00
42859;BME280;28505;56.970;40.998;2023-04-01T17:27:59;99428.03;;;3.31;100.00
42859;BME280;28505;56.970;40.998;2023-04-01T17:45:10;99439.66;;;3.19;100.00
42859;BME280;28505;56.970;40.998;2023-04-01T17:50:54;99467.38;;;3.23;100.00
42859;BME280;28505;56.970;40.998;2023-04-01T17:56:39;99455.88;;;3.13;100.00
42859;BME280;28505;56.970;40.998;2023-04-01T18:13:46;99468.34;;;3.07;100.00
42859;BME280;28505;56.970;40.998;2023-04-01T18:25:28;99478.19;;;3.07;100.00
42859;BME280;28505;56.970;40.998;2023-04-01T18:36:56;99490.75;;;3.11;100.00
42859;BME280;28505;56.970;40.998;2023-04-01T18:42:55;99487.53;;;3.09;100.00
42859;BME280;28505;56.970;40.998;2023-04-01T18:54:47;99485.13;;;3.08;100.00
42859;BME280;28505;56.970;40.998;2023-04-01T19:00:28;99491.78;;;3.10;100.00
42859;BME280;28505;56.970;40.998;2023-04-01T19:05:56;99491.25;;;3.08;100.00
42859;BME280;28505;56.970;40.998;2023-04-01T19:46:10;99458.19;;;3.04;100.00
42859;BME280;28505;56.970;40.998;2023-04-01T19:51:50;99466.16;;;2.99;100.00
42859;BME280;28505;56.970;40.998;2023-04-01T20:03:28;99461.41;;;3.06;100.00
42859;BME280;28505;56.970;40.998;2023-04-01T20:08:41;99468.03;;;3.03;100.00
42859;BME280;28505;56.970;40.998;2023-04-01T20:14:26;99446.66;;;2.88;100.00
42859;BME280;28505;56.970;40.998;2023-04-01T20:25:30;99481.13;;;3.10;100.00
42859;BME280;28505;56.970;40.998;2023-04-01T20:42:24;99486.50;;;3.15;100.00
42859;BME280;28505;56.970;40.998;2023-04-01T20:59:42;99485.44;;;3.11;100.00
42859;BME280;28505;56.970;40.998;2023-04-01T21:05:47;99495.88;;;3.18;100.00
42859;BME280;28505;56.970;40.998;2023-04-01T21:11:34;99483.81;;;3.10;100.00
42859;BME280;28505;56.970;40.998;2023-04-01T21:34:25;99528.63;;;3.18;100.00
42859;BME280;28505;56.970;40.998;2023-04-01T21:51:11;99532.34;;;3.17;100.00
42859;BME280;28505;56.970;40.998;2023-04-01T22:13:57;99530.19;;;3.14;100.00
42859;BME280;28505;56.970;40.998;2023-04-01T22:25:21;99520.00;;;3.06;100.00
42859;BME280;28505;56.970;40.998;2023-04-01T22:30:52;99539.78;;;3.15;100.00
42859;BME280;28505;56.970;40.998;2023-04-01T22:36:35;99543.00;;;3.17;100.00
42859;BME280;28505;56.970;40.998;2023-04-01T22:54:01;99551.31;;;3.26;100.00
42859;BME280;28505;56.970;40.998;2023-04-01T22:59:45;99549.22;;;3.28;100.00
42859;BME280;28505;56.970;40.998;2023-04-01T23:05:15;99547.91;;;3.31;100.00
42859;BME280;28505;56.970;40.998;2023-04-01T23:11:06;99565.50;;;3.32;100.00
42859;BME280;28505;56.970;40.998;2023-04-01T23:16:34;99537.16;;;3.20;100.00
42859;BME280;28505;56.970;40.998;2023-04-01T23:33:31;99536.13;;;3.26;100.00
42859;BME280;28505;56.970;40.998;2023-04-01T23:38:53;99536.63;;;3.23;100.00
42859;BME280;28505;56.970;40.998;2023-04-01T23:44:16;99522.50;;;3.18;100.00
42859;BME280;28505;56.970;40.998;2023-04-01T23:49:43;99559.16;;;3.38;100.00
42859;BME280;28505;56.970;40.998;2023-04-01T23:55:16;99555.38;;;3.34;100.00
